createdAt,value
2023-04-01T00:00:39.360Z,99.99
2023-04-01T00:01:39.357Z,99.99
2023-04-01T00:02:39.401Z,99.99
2023-04-01T00:03:39.599Z,99.99
2023-04-01T00:04:39.405Z,99.99
2023-04-01T00:05:39.380Z,99.99
2023-04-01T00:06:39.374Z,99.99
2023-04-01T00:07:39.390Z,99.99
2023-04-01T00:08:39.378Z,99.99
2023-04-01T00:09:39.380Z,99.99
2023-04-01T00:10:39.388Z,99.99
2023-04-01T00:11:39.387Z,99.99
2023-04-01T00:12:39.396Z,99.99
2023-04-01T00:13:39.412Z,99.99
2023-04-01T00:14:39.403Z,99.99
2023-04-01T00:15:39.405Z,99.99
2023-04-01T00:16:39.462Z,99.99
2023-04-01T00:17:39.440Z,99.99
2023-04-01T00:18:39.420Z,99.99
2023-04-01T00:19:39.429Z,99.99
2023-04-01T00:20:39.431Z,99.99
2023-04-01T00:21:39.425Z,99.99
2023-04-01T00:22:39.432Z,99.99
2023-04-01T00:23:39.456Z,99.99
2023-04-01T00:24:39.440Z,99.99
2023-04-01T00:25:39.442Z,99.99
2023-04-01T00:26:39.448Z,99.99
2023-04-01T00:27:39.451Z,99.99
2023-04-01T00:28:39.459Z,99.99
2023-04-01T00:29:39.462Z,99.99
2023-04-01T00:30:39.530Z,99.99
2023-04-01T00:31:39.487Z,99.99
2023-04-01T00:32:39.518Z,99.99
2023-04-01T00:33:39.494Z,99.99
2023-04-01T00:34:39.497Z,99.99
2023-04-01T00:35:39.508Z,99.99
2023-04-01T00:36:39.557Z,99.99
2023-04-01T00:37:39.492Z,99.99
2023-04-01T00:38:39.503Z,99.99
2023-04-01T00:39:39.518Z,99.99
2023-04-01T00:40:39.511Z,99.99
2023-04-01T00:41:39.504Z,99.99
2023-04-01T00:42:39.511Z,99.99
2023-04-01T00:43:39.514Z,99.99
2023-04-01T00:44:39.523Z,99.99
2023-04-01T00:45:39.527Z,99.99
2023-04-01T00:46:39.548Z,99.99
2023-04-01T00:47:39.542Z,99.99
2023-04-01T00:48:39.538Z,99.99
2023-04-01T00:49:39.546Z,99.99
2023-04-01T00:50:39.544Z,99.99
2023-04-01T00:51:39.542Z,99.99
2023-04-01T00:52:39.557Z,99.99
2023-04-01T00:53:39.558Z,99.99
2023-04-01T00:54:39.556Z,99.99
2023-04-01T00:55:39.574Z,99.99
2023-04-01T00:56:39.560Z,99.99
2023-04-01T00:57:39.574Z,99.99
2023-04-01T00:58:39.569Z,99.99
2023-04-01T00:59:39.568Z,99.99
2023-04-01T01:00:39.613Z,99.99
2023-04-01T01:01:39.576Z,99.99
2023-04-01T01:02:39.700Z,99.99
2023-04-01T01:03:39.603Z,99.99
2023-04-01T01:04:39.592Z,99.99
2023-04-01T01:05:48.478Z,99.99
2023-04-01T01:06:39.611Z,99.99
2023-04-01T01:07:39.603Z,99.99
2023-04-01T01:08:39.601Z,99.99
2023-04-01T01:09:39.606Z,99.99
2023-04-01T01:10:39.626Z,99.99
2023-04-01T01:11:43.772Z,99.99
2023-04-01T01:12:39.637Z,99.99
2023-04-01T01:13:39.615Z,99.99
2023-04-01T01:14:39.623Z,99.99
2023-04-01T01:15:39.625Z,99.99
2023-04-01T01:16:39.664Z,99.99
2023-04-01T01:17:39.722Z,99.99
2023-04-01T01:18:39.636Z,99.99
2023-04-01T01:19:39.639Z,99.99
2023-04-01T01:20:39.643Z,99.99
2023-04-01T01:21:39.642Z,99.99
2023-04-01T01:22:39.649Z,99.99
2023-04-01T01:23:39.655Z,99.99
2023-04-01T01:24:39.659Z,99.99
2023-04-01T01:25:39.664Z,99.99
2023-04-01T01:26:39.663Z,99.99
2023-04-01T01:27:39.683Z,99.99
2023-04-01T01:28:39.675Z,99.99
2023-04-01T01:29:39.672Z,99.99
2023-04-01T01:30:39.730Z,99.99
2023-04-01T01:31:39.679Z,99.99
2023-04-01T01:32:39.740Z,99.99
2023-04-01T01:33:39.685Z,99.99
2023-04-01T01:34:39.694Z,99.99
2023-04-01T01:35:39.712Z,99.99
2023-04-01T01:36:39.699Z,99.99
2023-04-01T01:37:39.709Z,99.99
2023-04-01T01:38:39.710Z,99.99
2023-04-01T01:39:39.709Z,99.99
2023-04-01T01:40:39.715Z,99.99
2023-04-01T01:41:39.729Z,99.99
2023-04-01T01:42:39.726Z,99.99
2023-04-01T01:43:39.752Z,99.99
2023-04-01T01:44:39.732Z,99.99
2023-04-01T01:45:39.751Z,99.99
2023-04-01T01:46:39.790Z,99.99
2023-04-01T01:47:39.772Z,99.99
2023-04-01T01:48:39.753Z,99.99
2023-04-01T01:49:39.744Z,99.99
2023-04-01T01:50:39.759Z,99.99
2023-04-01T01:51:39.750Z,99.99
2023-04-01T01:52:39.759Z,99.99
2023-04-01T01:53:39.774Z,99.99
2023-04-01T01:54:39.771Z,99.99
2023-04-01T01:55:39.770Z,99.99
2023-04-01T01:56:39.772Z,99.99
2023-04-01T01:57:39.780Z,99.99
2023-04-01T01:58:39.780Z,99.99
2023-04-01T01:59:39.799Z,99.99
2023-04-01T02:00:39.794Z,99.99
2023-04-01T02:01:39.814Z,99.99
2023-04-01T02:02:39.835Z,99.99
2023-04-01T02:03:39.797Z,99.99
2023-04-01T02:04:39.832Z,99.99
2023-04-01T02:05:39.801Z,99.99
2023-04-01T02:06:39.813Z,99.99
2023-04-01T02:07:39.810Z,99.99
2023-04-01T02:08:39.836Z,99.99
2023-04-01T02:09:39.818Z,99.99
2023-04-01T02:10:39.826Z,99.99
2023-04-01T02:11:39.828Z,99.99
2023-04-01T02:12:39.829Z,99.99
2023-04-01T02:13:39.839Z,99.99
2023-04-01T02:14:39.842Z,99.99
2023-04-01T02:15:39.869Z,99.99
2023-04-01T02:16:39.851Z,99.99
2023-04-01T02:17:39.883Z,99.99
2023-04-01T02:18:39.853Z,99.99
2023-04-01T02:19:39.857Z,99.99
2023-04-01T02:20:39.858Z,99.99
2023-04-01T02:21:39.861Z,99.99
2023-04-01T02:22:39.871Z,99.99
2023-04-01T02:23:39.868Z,99.99
2023-04-01T02:24:39.874Z,99.99
2023-04-01T02:25:39.887Z,99.99
2023-04-01T02:26:39.883Z,99.99
2023-04-01T02:27:39.882Z,99.99
2023-04-01T02:28:39.896Z,99.99
2023-04-01T02:29:39.889Z,99.99
2023-04-01T02:30:39.916Z,99.99
2023-04-01T02:31:40.030Z,99.99
2023-04-01T02:32:39.993Z,99.99
2023-04-01T02:33:39.944Z,99.99
2023-04-01T02:34:39.911Z,99.99
2023-04-01T02:35:39.933Z,99.99
2023-04-01T02:36:39.914Z,99.99
2023-04-01T02:37:40.569Z,99.99
2023-04-01T02:38:39.937Z,99.99
2023-04-01T02:39:39.923Z,99.99
2023-04-01T02:40:39.938Z,99.99
2023-04-01T02:41:39.956Z,99.99
2023-04-01T02:42:39.951Z,99.99
2023-04-01T02:43:39.942Z,99.99
2023-04-01T02:44:39.945Z,99.99
2023-04-01T02:45:39.955Z,99.99
2023-04-01T02:46:39.965Z,99.99
2023-04-01T02:47:40.018Z,99.99
2023-04-01T02:48:39.957Z,99.99
2023-04-01T02:49:39.978Z,99.99
2023-04-01T02:50:39.966Z,99.99
2023-04-01T02:51:39.974Z,99.99
2023-04-01T02:52:39.992Z,99.99
2023-04-01T02:53:39.982Z,99.99
2023-04-01T02:54:39.978Z,99.99
2023-04-01T02:55:39.987Z,99.99
2023-04-01T02:56:39.990Z,99.99
2023-04-01T02:57:39.997Z,99.99
2023-04-01T02:58:39.992Z,99.99
2023-04-01T02:59:40.004Z,99.99
2023-04-01T03:00:39.999Z,99.99
2023-04-01T03:01:40.021Z,99.99
2023-04-01T03:02:40.158Z,99.99
2023-04-01T03:03:40.108Z,99.99
2023-04-01T03:04:40.012Z,99.99
2023-04-01T03:05:40.029Z,99.99
2023-04-01T03:06:40.024Z,99.99
2023-04-01T03:07:40.033Z,99.99
2023-04-01T03:08:40.027Z,99.99
2023-04-01T03:09:40.039Z,99.99
2023-04-01T03:10:40.047Z,99.99
2023-04-01T03:11:40.056Z,99.99
2023-04-01T03:12:40.062Z,99.99
2023-04-01T03:13:40.070Z,99.99
2023-04-01T03:14:40.056Z,99.99
2023-04-01T03:15:40.071Z,99.99
2023-04-01T03:16:40.130Z,99.99
2023-04-01T03:17:40.087Z,99.99
2023-04-01T03:18:40.062Z,99.99
2023-04-01T03:19:40.087Z,99.99
2023-04-01T03:20:40.067Z,99.99
2023-04-01T03:21:40.082Z,99.99
2023-04-01T03:22:42.302Z,99.99
2023-04-01T03:23:40.077Z,99.99
2023-04-01T03:24:40.079Z,99.99
2023-04-01T03:25:40.087Z,99.99
2023-04-01T03:26:40.101Z,99.99
2023-04-01T03:27:40.106Z,99.99
2023-04-01T03:28:40.094Z,99.99
2023-04-01T03:29:40.146Z,99.99
2023-04-01T03:30:40.160Z,99.99
2023-04-01T03:31:40.113Z,99.99
2023-04-01T03:32:40.199Z,99.99
2023-04-01T03:33:40.133Z,99.99
2023-04-01T03:34:40.110Z,99.99
2023-04-01T03:35:40.142Z,99.99
2023-04-01T03:36:40.148Z,99.99
2023-04-01T03:37:40.120Z,99.99
2023-04-01T03:38:40.126Z,99.99
2023-04-01T03:39:40.136Z,99.99
2023-04-01T03:40:40.131Z,99.99
2023-04-01T03:41:40.138Z,99.99
2023-04-01T03:42:40.169Z,99.99
2023-04-01T03:43:40.155Z,99.99
2023-04-01T03:44:40.142Z,99.99
2023-04-01T03:45:40.149Z,99.99
2023-04-01T03:46:40.266Z,99.99
2023-04-01T03:47:40.224Z,99.99
2023-04-01T03:48:40.155Z,99.99
2023-04-01T03:49:40.160Z,99.99
2023-04-01T03:50:40.161Z,99.99
2023-04-01T03:51:40.189Z,99.99
2023-04-01T03:52:40.166Z,99.99
2023-04-01T03:53:40.181Z,99.99
2023-04-01T03:54:40.174Z,99.99
2023-04-01T03:55:40.183Z,99.99
2023-04-01T03:56:40.181Z,99.99
2023-04-01T03:57:40.225Z,99.99
2023-04-01T03:58:40.333Z,99.99
2023-04-01T03:59:40.203Z,99.99
2023-04-01T04:00:40.194Z,99.99
2023-04-01T04:01:40.208Z,99.99
2023-04-01T04:02:40.313Z,99.99
2023-04-01T04:03:40.273Z,99.99
2023-04-01T04:04:40.347Z,99.99
2023-04-01T04:05:40.221Z,99.99
2023-04-01T04:06:40.223Z,99.99
2023-04-01T04:07:40.241Z,99.99
2023-04-01T04:08:40.222Z,99.99
2023-04-01T04:09:40.235Z,99.99
2023-04-01T04:10:40.234Z,99.99
2023-04-01T04:11:40.236Z,99.99
2023-04-01T04:12:40.236Z,99.99
2023-04-01T04:13:40.242Z,99.99
2023-04-01T04:14:40.245Z,99.99
2023-04-01T04:15:40.325Z,99.99
2023-04-01T04:16:40.256Z,99.99
2023-04-01T04:17:40.304Z,99.99
2023-04-01T04:18:40.260Z,99.99
2023-04-01T04:19:40.275Z,99.99
2023-04-01T04:20:40.276Z,99.99
2023-04-01T04:21:40.270Z,99.99
2023-04-01T04:22:40.268Z,99.99
2023-04-01T04:23:40.297Z,99.99
2023-04-01T04:24:40.274Z,99.99
2023-04-01T04:25:40.281Z,99.99
2023-04-01T04:26:40.281Z,99.99
2023-04-01T04:27:40.288Z,99.99
2023-04-01T04:28:40.291Z,99.99
2023-04-01T04:29:40.299Z,99.99
2023-04-01T04:30:40.295Z,99.99
2023-04-01T04:31:40.365Z,99.99
2023-04-01T04:32:40.346Z,99.99
2023-04-01T04:33:40.313Z,99.99
2023-04-01T04:34:40.327Z,99.99
2023-04-01T04:35:40.336Z,99.99
2023-04-01T04:36:40.319Z,99.99
2023-04-01T04:37:40.319Z,99.99
2023-04-01T04:38:40.322Z,99.99
2023-04-01T04:39:40.353Z,99.99
2023-04-01T04:40:40.325Z,99.99
2023-04-01T04:41:40.337Z,99.99
2023-04-01T04:42:40.337Z,99.99
2023-04-01T04:43:40.359Z,99.99
2023-04-01T04:44:40.372Z,99.99
2023-04-01T04:45:40.345Z,99.99
2023-04-01T04:46:40.457Z,99.99
2023-04-01T04:47:40.407Z,99.99
2023-04-01T04:48:40.363Z,99.99
2023-04-01T04:49:40.363Z,99.99
2023-04-01T04:50:40.365Z,99.99
2023-04-01T04:51:40.366Z,99.99
2023-04-01T04:52:40.367Z,99.99
2023-04-01T04:53:40.373Z,99.99
2023-04-01T04:54:40.385Z,99.99
2023-04-01T04:55:40.398Z,99.99
2023-04-01T04:56:40.403Z,99.99
2023-04-01T04:57:40.390Z,99.99
2023-04-01T04:58:40.457Z,99.99
2023-04-01T04:59:40.393Z,99.99
2023-04-01T05:00:40.387Z,99.99
2023-04-01T05:01:40.415Z,99.99
2023-04-01T05:02:40.580Z,99.99
2023-04-01T05:03:40.477Z,99.99
2023-04-01T05:04:40.401Z,99.99
2023-04-01T05:05:40.450Z,99.99
2023-04-01T05:06:40.412Z,99.99
2023-04-01T05:07:40.415Z,99.99
2023-04-01T05:08:40.417Z,99.99
2023-04-01T05:09:40.425Z,99.99
2023-04-01T05:10:40.418Z,99.99
2023-04-01T05:11:40.447Z,99.99
2023-04-01T05:12:40.424Z,99.99
2023-04-01T05:13:40.430Z,99.99
2023-04-01T05:14:40.429Z,99.99
2023-04-01T05:15:40.459Z,99.99
2023-04-01T05:16:40.483Z,99.99
2023-04-01T05:17:40.454Z,99.99
2023-04-01T05:18:40.443Z,99.99
2023-04-01T05:19:40.473Z,99.99
2023-04-01T05:20:40.456Z,99.99
2023-04-01T05:21:40.456Z,99.99
2023-04-01T05:22:40.457Z,99.99
2023-04-01T05:23:40.461Z,99.99
2023-04-01T05:24:40.480Z,99.99
2023-04-01T05:25:40.528Z,99.99
2023-04-01T05:26:40.479Z,99.99
2023-04-01T05:27:40.498Z,99.99
2023-04-01T05:28:40.534Z,99.99
2023-04-01T05:29:40.485Z,99.99
2023-04-01T05:30:40.511Z,99.99
2023-04-01T05:31:40.487Z,99.99
2023-04-01T05:32:40.518Z,99.99
2023-04-01T05:33:40.501Z,99.99
2023-04-01T05:34:40.564Z,99.99
2023-04-01T05:35:40.575Z,99.99
2023-04-01T05:36:40.511Z,99.99
2023-04-01T05:37:40.512Z,99.99
2023-04-01T05:38:40.511Z,99.99
2023-04-01T05:39:40.544Z,99.99
2023-04-01T05:40:40.515Z,99.99
2023-04-01T05:41:40.521Z,99.99
2023-04-01T05:42:40.524Z,99.99
2023-04-01T05:43:40.552Z,99.99
2023-04-01T05:44:40.540Z,99.99
2023-04-01T05:45:40.536Z,99.99
2023-04-01T05:46:40.585Z,99.99
2023-04-01T05:47:40.577Z,99.99
2023-04-01T05:48:40.541Z,99.99
2023-04-01T05:49:40.548Z,99.99
2023-04-01T05:50:40.548Z,99.99
2023-04-01T05:51:40.554Z,99.99
2023-04-01T05:52:40.551Z,99.99
2023-04-01T05:53:40.566Z,99.99
2023-04-01T05:54:40.563Z,99.99
2023-04-01T05:55:40.566Z,99.99
2023-04-01T05:56:40.565Z,99.99
2023-04-01T05:57:40.612Z,99.99
2023-04-01T05:58:40.608Z,99.99
2023-04-01T05:59:40.596Z,99.99
2023-04-01T06:00:40.577Z,99.99
2023-04-01T06:01:40.599Z,99.99
2023-04-01T06:02:40.675Z,99.99
2023-04-01T06:03:40.756Z,99.99
2023-04-01T06:04:40.648Z,99.99
2023-04-01T06:05:40.595Z,99.99
2023-04-01T06:06:40.594Z,99.99
2023-04-01T06:07:40.601Z,99.99
2023-04-01T06:08:40.606Z,99.99
2023-04-01T06:09:40.608Z,99.99
2023-04-01T06:10:40.623Z,99.99
2023-04-01T06:11:40.616Z,99.99
2023-04-01T06:12:40.615Z,99.99
2023-04-01T06:13:40.621Z,99.99
2023-04-01T06:14:40.619Z,99.99
2023-04-01T06:15:40.651Z,99.99
2023-04-01T06:16:40.720Z,99.99
2023-04-01T06:17:40.671Z,99.99
2023-04-01T06:18:40.637Z,99.99
2023-04-01T06:19:40.639Z,99.99
2023-04-01T06:20:40.637Z,99.99
2023-04-01T06:21:40.663Z,99.99
2023-04-01T06:22:40.694Z,99.99
2023-04-01T06:23:40.672Z,99.99
2023-04-01T06:24:40.659Z,99.99
2023-04-01T06:25:40.668Z,99.99
2023-04-01T06:26:40.687Z,99.99
2023-04-01T06:27:40.707Z,99.99
2023-04-01T06:28:40.685Z,99.99
2023-04-01T06:29:40.679Z,99.99
2023-04-01T06:30:40.695Z,99.99
2023-04-01T06:31:41.020Z,99.99
2023-04-01T06:32:40.747Z,99.99
2023-04-01T06:33:40.705Z,99.99
2023-04-01T06:34:40.691Z,99.99
2023-04-01T06:35:40.779Z,99.99
2023-04-01T06:36:40.740Z,99.99
2023-04-01T06:37:40.713Z,99.99
2023-04-01T06:38:40.713Z,99.99
2023-04-01T06:39:40.717Z,99.99
2023-04-01T06:40:40.722Z,99.99
2023-04-01T06:41:40.724Z,99.99
2023-04-01T06:42:40.724Z,99.99
2023-04-01T06:43:40.741Z,99.99
2023-04-01T06:44:40.729Z,99.99
2023-04-01T06:45:40.832Z,99.99
2023-04-01T06:46:40.739Z,99.99
2023-04-01T06:47:41.565Z,99.99
2023-04-01T06:48:40.740Z,99.99
2023-04-01T06:49:40.748Z,99.99
2023-04-01T06:50:40.746Z,99.99
2023-04-01T06:51:40.754Z,99.99
2023-04-01T06:52:40.757Z,99.99
2023-04-01T06:53:40.768Z,99.99
2023-04-01T06:54:40.765Z,99.99
2023-04-01T06:55:40.777Z,99.99
2023-04-01T06:56:40.769Z,99.99
2023-04-01T06:57:40.778Z,99.99
2023-04-01T06:58:40.780Z,99.99
2023-04-01T06:59:40.891Z,99.99
2023-04-01T07:00:40.792Z,99.99
2023-04-01T07:01:40.843Z,99.99
2023-04-01T07:02:40.829Z,99.99
2023-04-01T07:03:40.822Z,99.99
2023-04-01T07:04:40.913Z,99.99
2023-04-01T07:05:40.830Z,99.99
2023-04-01T07:06:40.812Z,99.99
2023-04-01T07:07:40.806Z,99.99
2023-04-01T07:08:40.820Z,99.99
2023-04-01T07:09:40.822Z,99.99
2023-04-01T07:10:40.822Z,99.99
2023-04-01T07:11:40.821Z,99.99
2023-04-01T07:12:40.831Z,99.99
2023-04-01T07:13:40.835Z,99.99
2023-04-01T07:14:40.834Z,99.99
2023-04-01T07:15:40.838Z,99.99
2023-04-01T07:16:41.039Z,99.99
2023-04-01T07:17:40.858Z,99.99
2023-04-01T07:18:40.849Z,99.99
2023-04-01T07:19:41.219Z,99.99
2023-04-01T07:20:40.860Z,99.99
2023-04-01T07:21:40.857Z,99.99
2023-04-01T07:22:40.864Z,99.99
2023-04-01T07:23:40.872Z,99.99
2023-04-01T07:24:40.882Z,99.99
2023-04-01T07:25:40.872Z,99.99
2023-04-01T07:26:40.886Z,99.99
2023-04-01T07:27:40.887Z,99.99
2023-04-01T07:28:40.891Z,99.99
2023-04-01T07:29:40.890Z,99.99
2023-04-01T07:30:40.952Z,99.99
2023-04-01T07:31:40.911Z,99.99
2023-04-01T07:32:40.938Z,99.99
2023-04-01T07:33:41.007Z,99.99
2023-04-01T07:34:40.912Z,99.99
2023-04-01T07:35:40.969Z,99.99
2023-04-01T07:36:40.928Z,99.99
2023-04-01T07:37:40.923Z,99.99
2023-04-01T07:38:40.960Z,99.99
2023-04-01T07:39:40.947Z,99.99
2023-04-01T07:40:40.938Z,99.99
2023-04-01T07:41:40.938Z,99.99
2023-04-01T07:42:40.946Z,99.99
2023-04-01T07:43:40.946Z,99.99
2023-04-01T07:44:40.955Z,99.99
2023-04-01T07:45:40.955Z,99.99
2023-04-01T07:46:41.089Z,99.99
2023-04-01T07:47:41.012Z,99.99
2023-04-01T07:48:40.969Z,99.99
2023-04-01T07:49:40.974Z,99.99
2023-04-01T07:50:40.979Z,99.99
2023-04-01T07:51:41.005Z,99.99
2023-04-01T07:52:40.988Z,99.99
2023-04-01T07:53:40.988Z,99.99
2023-04-01T07:54:40.993Z,99.99
2023-04-01T07:55:40.996Z,99.99
2023-04-01T07:56:41.009Z,99.99
2023-04-01T07:57:41.046Z,99.99
2023-04-01T07:58:41.026Z,99.99
2023-04-01T07:59:41.013Z,99.99
2023-04-01T08:00:41.023Z,99.99
2023-04-01T08:01:41.025Z,99.99
2023-04-01T08:02:41.120Z,99.99
2023-04-01T08:03:41.133Z,99.99
2023-04-01T08:04:41.032Z,99.99
2023-04-01T08:05:41.046Z,99.99
2023-04-01T08:06:41.058Z,99.99
2023-04-01T08:07:41.066Z,99.99
2023-04-01T08:08:41.057Z,99.99
2023-04-01T08:09:41.058Z,99.99
2023-04-01T08:10:41.059Z,99.99
2023-04-01T08:11:43.484Z,99.99
2023-04-01T08:12:41.071Z,99.99
2023-04-01T08:13:41.075Z,99.99
2023-04-01T08:14:41.086Z,99.99
2023-04-01T08:15:41.084Z,99.99
2023-04-01T08:16:41.148Z,99.99
2023-04-01T08:17:41.119Z,99.99
2023-04-01T08:18:41.120Z,99.99
2023-04-01T08:19:41.107Z,99.99
2023-04-01T08:20:41.100Z,99.99
2023-04-01T08:21:41.101Z,99.99
2023-04-01T08:22:41.110Z,99.99
2023-04-01T08:23:41.136Z,99.99
2023-04-01T08:24:47.536Z,99.99
2023-04-01T08:25:41.121Z,99.99
2023-04-01T08:26:41.142Z,99.99
2023-04-01T08:27:41.129Z,99.99
2023-04-01T08:28:41.142Z,99.99
2023-04-01T08:29:41.152Z,99.99
2023-04-01T08:30:41.144Z,99.99
2023-04-01T08:31:41.213Z,99.99
2023-04-01T08:32:41.185Z,99.99
2023-04-01T08:33:41.155Z,99.99
2023-04-01T08:34:41.164Z,99.99
2023-04-01T08:35:41.449Z,99.99
2023-04-01T08:36:41.175Z,99.99
2023-04-01T08:37:41.178Z,99.99
2023-04-01T08:38:41.180Z,99.99
2023-04-01T08:39:41.209Z,99.99
2023-04-01T08:40:41.204Z,99.99
2023-04-01T08:41:41.199Z,99.99
2023-04-01T08:42:41.205Z,99.99
2023-04-01T08:43:41.211Z,99.62
2023-04-01T08:44:41.213Z,97.73
2023-04-01T08:45:41.240Z,96.78
2023-04-01T08:46:41.229Z,96.69
2023-04-01T08:47:41.259Z,97.25
2023-04-01T08:48:41.237Z,97.16
2023-04-01T08:49:41.240Z,97.92
2023-04-01T08:50:41.248Z,97.25
2023-04-01T08:51:41.252Z,95.36
2023-04-01T08:52:41.259Z,94.08
2023-04-01T08:53:41.290Z,93.99
2023-04-01T08:54:41.293Z,94.37
2023-04-01T08:55:41.299Z,99.99
2023-04-01T08:56:41.283Z,99.99
2023-04-01T08:57:41.281Z,99.99
2023-04-01T08:58:41.304Z,99.99
2023-04-01T08:59:41.295Z,99.99
2023-04-01T09:00:41.306Z,99.99
2023-04-01T09:01:41.305Z,99.99
2023-04-01T09:02:41.446Z,99.99
2023-04-01T09:03:41.478Z,99.99
2023-04-01T09:04:41.334Z,99.99
2023-04-01T09:05:41.344Z,99.99
2023-04-01T09:06:41.347Z,99.99
2023-04-01T09:07:41.341Z,99.99
2023-04-01T09:08:41.372Z,99.99
2023-04-01T09:09:41.354Z,99.99
2023-04-01T09:10:41.373Z,99.99
2023-04-01T09:11:41.397Z,99.99
2023-04-01T09:12:41.379Z,99.99
2023-04-01T09:13:41.401Z,99.99
2023-04-01T09:14:41.383Z,99.99
2023-04-01T09:15:41.476Z,99.99
2023-04-01T09:16:41.400Z,99.99
2023-04-01T09:17:41.471Z,99.52
2023-04-01T09:18:41.410Z,97.44
2023-04-01T09:19:41.425Z,97.35
2023-04-01T09:20:41.427Z,96.92
2023-04-01T09:21:41.446Z,95.03
2023-04-01T09:22:41.436Z,89.53
2023-04-01T09:23:41.441Z,87.73
2023-04-01T09:24:41.451Z,87.16
2023-04-01T09:25:41.458Z,87.64
2023-04-01T09:26:41.463Z,88.68
2023-04-01T09:27:41.484Z,92.00
2023-04-01T09:28:41.472Z,90.20
2023-04-01T09:29:41.476Z,88.02
2023-04-01T09:30:41.512Z,90.53
2023-04-01T09:31:41.557Z,91.76
2023-04-01T09:32:41.577Z,90.72
2023-04-01T09:33:41.509Z,89.58
2023-04-01T09:34:41.514Z,89.01
2023-04-01T09:35:41.537Z,91.00
2023-04-01T09:36:41.547Z,90.00
2023-04-01T09:37:41.529Z,83.80
2023-04-01T09:38:41.550Z,80.29
2023-04-01T09:39:41.545Z,76.78
2023-04-01T09:40:41.560Z,77.12
2023-04-01T09:41:41.558Z,79.68
2023-04-01T09:42:41.568Z,82.52
2023-04-01T09:43:41.593Z,82.33
2023-04-01T09:44:42.929Z,82.56
2023-04-01T09:45:41.585Z,83.80
2023-04-01T09:46:41.870Z,89.86
2023-04-01T09:47:41.619Z,92.09
2023-04-01T09:48:41.605Z,94.60
2023-04-01T09:49:41.622Z,90.62
2023-04-01T09:50:41.625Z,84.74
2023-04-01T09:51:41.638Z,81.14
2023-04-01T09:52:41.633Z,79.15
2023-04-01T09:53:41.658Z,78.62
2023-04-01T09:54:41.645Z,76.54
2023-04-01T09:55:41.651Z,78.72
2023-04-01T09:56:41.662Z,86.11
2023-04-01T09:57:41.664Z,88.96
2023-04-01T09:58:43.914Z,88.48
2023-04-01T09:59:41.697Z,87.82
2023-04-01T10:00:41.692Z,88.01
2023-04-01T10:01:41.814Z,86.78
2023-04-01T10:02:41.716Z,87.58
2023-04-01T10:03:41.704Z,87.58
2023-04-01T10:04:41.715Z,88.15
2023-04-01T10:05:41.772Z,89.29
2023-04-01T10:06:41.726Z,89.86
2023-04-01T10:07:41.735Z,89.95
2023-04-01T10:08:41.744Z,90.24
2023-04-01T10:09:41.758Z,89.67
2023-04-01T10:10:41.759Z,92.42
2023-04-01T10:11:41.767Z,93.84
2023-04-01T10:12:41.773Z,92.47
2023-04-01T10:13:41.781Z,90.00
2023-04-01T10:14:41.791Z,88.15
2023-04-01T10:15:41.817Z,85.62
2023-04-01T10:16:41.838Z,81.92
2023-04-01T10:17:41.833Z,78.36
2023-04-01T10:18:41.822Z,78.99
2023-04-01T10:19:41.825Z,80.64
2023-04-01T10:20:41.844Z,81.02
2023-04-01T10:21:41.845Z,78.70
2023-04-01T10:22:41.858Z,87.30
2023-04-01T10:23:41.868Z,94.27
2023-04-01T10:24:41.877Z,99.15
2023-04-01T10:25:41.873Z,94.08
2023-04-01T10:26:41.895Z,92.52
2023-04-01T10:27:41.904Z,91.09
2023-04-01T10:28:41.904Z,90.52
2023-04-01T10:29:41.913Z,88.20
2023-04-01T10:30:41.929Z,84.06
2023-04-01T10:31:41.972Z,80.93
2023-04-01T10:32:43.587Z,76.65
2023-04-01T10:33:41.947Z,72.09
2023-04-01T10:34:41.954Z,72.85
2023-04-01T10:35:41.980Z,70.86
2023-04-01T10:36:41.974Z,69.43
2023-04-01T10:37:41.980Z,68.33
2023-04-01T10:38:41.996Z,68.07
2023-04-01T10:39:41.997Z,68.11
2023-04-01T10:40:42.015Z,66.43
2023-04-01T10:41:42.028Z,65.19
2023-04-01T10:42:42.031Z,67.22
2023-04-01T10:43:42.042Z,69.79
2023-04-01T10:44:42.051Z,70.51
2023-04-01T10:45:42.088Z,79.80
2023-04-01T10:46:42.068Z,77.24
2023-04-01T10:47:42.115Z,74.05
2023-04-01T10:48:42.111Z,73.14
2023-04-01T10:49:42.100Z,78.27
2023-04-01T10:50:42.109Z,79.31
2023-04-01T10:51:42.115Z,72.19
2023-04-01T10:52:42.128Z,70.21
2023-04-01T10:53:42.138Z,71.17
2023-04-01T10:54:42.187Z,71.67
2023-04-01T10:55:42.153Z,73.57
2023-04-01T10:56:42.169Z,77.31
2023-04-01T10:57:42.172Z,80.49
2023-04-01T10:58:42.185Z,83.62
2023-04-01T10:59:42.197Z,84.01
2023-04-01T11:00:42.248Z,84.62
2023-04-01T11:01:42.330Z,83.06
2023-04-01T11:02:42.390Z,82.49
2023-04-01T11:03:42.327Z,82.07
2023-04-01T11:04:42.245Z,80.74
2023-04-01T11:05:42.250Z,81.49
2023-04-01T11:06:42.269Z,85.20
2023-04-01T11:07:42.271Z,87.01
2023-04-01T11:08:42.285Z,86.53
2023-04-01T11:09:42.315Z,86.63
2023-04-01T11:10:42.322Z,87.05
2023-04-01T11:11:42.313Z,90.76
2023-04-01T11:12:42.323Z,89.76
2023-04-01T11:13:42.332Z,91.04
2023-04-01T11:14:42.344Z,90.80
2023-04-01T11:15:42.386Z,88.53
2023-04-01T11:16:42.408Z,86.86
2023-04-01T11:17:42.414Z,84.10
2023-04-01T11:18:42.400Z,86.30
2023-04-01T11:19:42.417Z,88.81
2023-04-01T11:20:42.403Z,90.52
2023-04-01T11:21:42.418Z,91.14
2023-04-01T11:22:42.427Z,85.77
2023-04-01T11:23:43.992Z,82.10
2023-04-01T11:24:42.442Z,80.05
2023-04-01T11:25:42.463Z,77.24
2023-04-01T11:26:42.483Z,75.19
2023-04-01T11:27:42.477Z,74.14
2023-04-01T11:28:42.484Z,74.52
2023-04-01T11:29:53.177Z,74.75
2023-04-01T11:30:42.511Z,73.80
2023-04-01T11:31:42.569Z,71.36
2023-04-01T11:32:42.570Z,67.74
2023-04-01T11:33:42.543Z,68.62
2023-04-01T11:34:42.553Z,73.44
2023-04-01T11:35:42.584Z,76.39
2023-04-01T11:36:42.599Z,77.58
2023-04-01T11:37:42.584Z,79.06
2023-04-01T11:38:42.611Z,80.55
2023-04-01T11:39:42.615Z,81.68
2023-04-01T11:40:42.649Z,82.35
2023-04-01T11:41:42.629Z,84.91
2023-04-01T11:42:42.638Z,86.05
2023-04-01T11:43:42.668Z,86.82
2023-04-01T11:44:42.664Z,87.38
2023-04-01T11:45:42.675Z,87.62
2023-04-01T11:46:42.798Z,87.24
2023-04-01T11:47:42.725Z,88.95
2023-04-01T11:48:44.832Z,88.76
2023-04-01T11:49:42.725Z,87.72
2023-04-01T11:50:42.723Z,88.67
2023-04-01T11:51:42.797Z,87.19
2023-04-01T11:52:42.744Z,89.53
2023-04-01T11:53:42.770Z,92.85
2023-04-01T11:54:42.764Z,96.50
2023-04-01T11:55:42.786Z,99.91
2023-04-01T11:56:42.824Z,99.99
2023-04-01T11:57:42.797Z,99.99
2023-04-01T11:58:42.821Z,99.99
2023-04-01T11:59:42.828Z,99.99
2023-04-01T12:00:42.853Z,99.99
2023-04-01T12:01:42.865Z,99.99
2023-04-01T12:02:42.915Z,99.99
2023-04-01T12:03:43.014Z,99.99
2023-04-01T12:04:42.933Z,99.99
2023-04-01T12:05:42.881Z,99.99
2023-04-01T12:06:42.889Z,99.99
2023-04-01T12:07:43.873Z,92.94
2023-04-01T12:08:42.911Z,93.75
2023-04-01T12:09:42.923Z,93.89
2023-04-01T12:10:42.938Z,94.56
2023-04-01T12:11:42.952Z,92.71
2023-04-01T12:12:50.710Z,89.00
2023-04-01T12:13:42.967Z,88.19
2023-04-01T12:14:42.972Z,85.28
2023-04-01T12:15:42.986Z,83.23
2023-04-01T12:16:43.058Z,79.33
2023-04-01T12:17:43.021Z,76.96
2023-04-01T12:18:43.014Z,78.29
2023-04-01T12:19:43.030Z,79.01
2023-04-01T12:20:43.036Z,79.01
2023-04-01T12:21:43.074Z,86.38
2023-04-01T12:22:43.060Z,92.99
2023-04-01T12:23:43.097Z,97.78
2023-04-01T12:24:43.085Z,97.45
2023-04-01T12:25:43.097Z,95.41
2023-04-01T12:26:43.109Z,97.02
2023-04-01T12:27:43.140Z,98.78
2023-04-01T12:28:43.152Z,99.99
2023-04-01T12:29:43.145Z,99.99
2023-04-01T12:30:43.186Z,97.92
2023-04-01T12:31:43.259Z,92.13
2023-04-01T12:32:43.227Z,94.46
2023-04-01T12:33:43.186Z,99.99
2023-04-01T12:34:43.194Z,99.99
2023-04-01T12:35:43.248Z,99.30
2023-04-01T12:36:43.213Z,99.99
2023-04-01T12:37:43.225Z,99.99
2023-04-01T12:38:43.233Z,99.99
2023-04-01T12:39:43.278Z,99.99
2023-04-01T12:40:43.256Z,99.99
2023-04-01T12:41:43.265Z,99.99
2023-04-01T12:42:43.279Z,99.99
2023-04-01T12:43:43.294Z,99.99
2023-04-01T12:44:43.304Z,99.99
2023-04-01T12:45:43.340Z,99.99
2023-04-01T12:46:43.319Z,99.99
2023-04-01T12:47:43.371Z,99.99
2023-04-01T12:48:43.333Z,99.99
2023-04-01T12:49:43.344Z,99.99
2023-04-01T12:50:43.353Z,99.99
2023-04-01T12:51:43.366Z,99.99
2023-04-01T12:52:43.373Z,99.99